Innellan, United Kingdom
Current Conditions -  °F | °C
As of 8:50 AM on Saturday 22 Nov 2014 (Local Time) from EGPF Reporting Station
Overcast Overcast  
Wind Chill: 44°   Ceiling: 1200
Heat Index: 46°   Visibility: 4mi
Dew Point: 46°   Wind: 6mph
Humidity: 100%   Direction: 50°NE
Pressure: 29.68"   Gusts: NA
Location:  55.89°N, 4.96°W
Report Text: EGPF 220850Z AUTO 05005KT 7000 OVC012/// //////TCU 08/08 Q1005 RERA REDZ
Loading
Personal Weather Stations






























Interactive Weather Map New forecast layout! Learn more

10-Day Weather Forecast

Advertisements
Track Severe Weather on mobile